Time;durP1;ratioP1;P1;durP2;ratioP2;P2;SDS_P1;SDS_P2;PMS_P1;PMS_P2;Temp;Humidity;BMP_temperature;BMP_pressure;BME280_temperature;BME280_humidity;BME280_pressure;Samples;Min_cycle;Max_cycle;Signal;HPM_P1;HPM_P2
2023/03/06 00:00:47;;;;;;;;;;;;;;;;;;5026337;28;19924;-69
2023/03/06 00:03:12;;;;;;;;;;;;;;;;;;5020190;28;19966;-68
2023/03/06 00:05:38;;;;;;;;;;;;;;;;;;5007887;28;20119;-70
2023/03/06 00:08:04;;;;;;;;;;;;;;;;;;5007194;28;19920;-70
2023/03/06 00:10:29;;;;;;;;;;;;;;;;;;5022484;28;19924;-65
2023/03/06 00:12:55;;;;;;;;;;;;;;;;;;5027040;28;19931;-68
2023/03/06 00:15:20;;;;;;;;;;;;;;;;;;5006614;28;19917;-66
2023/03/06 00:17:48;;;;;;;;;;;;;;;;;;5026328;28;20015;-67
2023/03/06 00:30:18;;;;;;;;;;;;;;;;;;5032257;28;19936;-67
2023/03/06 00:33:04;;;;;;;;;;;;;;;;;;5018723;28;20479;-66
2023/03/06 00:35:29;;;;;;;;;;;;;;;;;;5022244;28;19917;-68
2023/03/06 00:37:56;;;;;;;;;;;;;;;;;;5024612;28;19979;-67
2023/03/06 00:40:24;;;;;;;;;;;;;;;;;;5031007;28;19920;-67
2023/03/06 00:42:49;;;;;;;;;;;;;;;;;;5011379;28;20450;-69
2023/03/06 00:45:14;;;;;;;;;;;;;;;;;;5014089;28;20376;-68
2023/03/06 00:47:43;;;;;;;;;;;;;;;;;;5010620;28;20581;-69
2023/03/06 00:50:10;;;;;;;;;;;;;;;;;;5032127;28;19916;-67
2023/03/06 00:52:40;;;;;;;;;;;;;;;;;;5031347;28;19958;-68
2023/03/06 00:55:06;;;;;;;;;;;;;;;;;;5035028;28;19921;-68
2023/03/06 00:57:31;;;;;;;;;;;;;;;;;;5010208;28;20718;-68
2023/03/06 00:59:56;;;;;;;;;;;;;;;;;;5010939;28;20295;-68
2023/03/06 01:02:21;;;;;;;;;;;;;;;;;;5008052;28;20388;-68
2023/03/06 01:04:47;;;;;;;;;;;;;;;;;;5027516;28;19954;-69
2023/03/06 01:07:12;;;;;;;;;;;;;;;;;;5011695;28;20016;-69
2023/03/06 01:09:37;;;;;;;;;;;;;;;;;;5028704;28;19956;-68
2023/03/06 01:12:02;;;;;;;;;;;;;;;;;;5030173;28;19920;-68
2023/03/06 01:14:30;;;;;;;;;;;;;;;;;;5027846;28;20561;-67
2023/03/06 01:16:58;;;;;;;;;;;;;;;;;;5031208;28;20244;-68
2023/03/06 01:19:24;;;;;;;;;;;;;;;;;;5027878;28;20772;-67
2023/03/06 01:21:49;;;;;;;;;;;;;;;;;;5010368;28;19917;-67
2023/03/06 01:24:17;;;;;;;;;;;;;;;;;;5025091;28;19970;-69
2023/03/06 01:26:45;;;;;;;;;;;;;;;;;;5029533;28;20011;-69
2023/03/06 01:29:10;;;;;;;;;;;;;;;;;;5006848;28;19917;-69
2023/03/06 01:31:36;;;;;;;;;;;;;;;;;;5009813;28;19920;-68
2023/03/06 01:34:01;;;;;;;;;;;;;;;;;;5026606;28;19923;-74
2023/03/06 01:36:26;;;;;;;;;;;;;;;;;;5029340;28;19920;-68
2023/03/06 01:38:56;;;;;;;;;;;;;;;;;;5011595;28;20720;-67
2023/03/06 01:41:21;;;;;;;;;;;;;;;;;;5018960;28;19921;-67
2023/03/06 01:43:46;;;;;;;;;;;;;;;;;;5010548;28;20763;-68
2023/03/06 01:46:14;;;;;;;;;;;;;;;;;;5026213;28;20022;-68
2023/03/06 01:48:45;;;;;;;;;;;;;;;;;;5026291;28;20262;-68
2023/03/06 01:51:11;;;;;;;;;;;;;;;;;;5008232;28;19947;-68
2023/03/06 01:53:36;;;;;;;;;;;;;;;;;;5027255;28;19921;-68
2023/03/06 01:56:02;;;;;;;;;;;;;;;;;;5026927;28;19935;-68
2023/03/06 01:58:27;;;;;;;;;;;;;;;;;;5010191;28;21861;-67
2023/03/06 02:00:52;;;;;;;;;;;;;;;;;;5010104;28;20391;-68
2023/03/06 02:03:17;;;;;;;;;;;;;;;;;;5030267;28;19923;-68
2023/03/06 02:05:43;;;;;;;;;;;;;;;;;;5045183;28;19921;-69
2023/03/06 02:08:08;;;;;;;;;;;;;;;;;;5030948;28;19923;-68
2023/03/06 02:10:33;;;;;;;;;;;;;;;;;;5026935;28;19920;-68
2023/03/06 02:13:02;;;;;;;;;;;;;;;;;;5024827;28;20013;-68
2023/03/06 02:15:27;;;;;;;;;;;;;;;;;;5009773;28;20439;-68
2023/03/06 02:17:52;;;;;;;;;;;;;;;;;;5023458;28;20537;-69
2023/03/06 02:20:18;;;;;;;;;;;;;;;;;;5010442;28;20426;-67
2023/03/06 02:22:43;;;;;;;;;;;;;;;;;;5028155;28;20068;-67
2023/03/06 02:25:12;;;;;;;;;;;;;;;;;;5025059;28;19927;-68
2023/03/06 02:27:40;;;;;;;;;;;;;;;;;;5025282;28;19956;-67
2023/03/06 02:30:06;;;;;;;;;;;;;;;;;;5010959;28;20253;-68
2023/03/06 02:32:32;;;;;;;;;;;;;;;;;;5024068;28;20392;-68
2023/03/06 02:34:58;;;;;;;;;;;;;;;;;;5024978;28;19917;-68
2023/03/06 02:37:23;;;;;;;;;;;;;;;;;;5005863;28;19996;-68
2023/03/06 02:39:53;;;;;;;;;;;;;;;;;;5026348;28;20473;-68
2023/03/06 02:42:21;;;;;;;;;;;;;;;;;;5025740;28;20030;-68
2023/03/06 02:44:49;;;;;;;;;;;;;;;;;;5009964;28;20062;-68
2023/03/06 02:47:17;;;;;;;;;;;;;;;;;;5028023;28;20430;-69
2023/03/06 02:49:42;;;;;;;;;;;;;;;;;;5028663;28;20033;-69
2023/03/06 02:52:10;;;;;;;;;;;;;;;;;;5029332;28;20653;-69
2023/03/06 02:54:35;;;;;;;;;;;;;;;;;;5010263;28;19987;-69
2023/03/06 02:57:04;;;;;;;;;;;;;;;;;;5009999;28;19921;-69
2023/03/06 02:59:29;;;;;;;;;;;;;;;;;;5028085;28;19968;-68
2023/03/06 03:01:54;;;;;;;;;;;;;;;;;;5006694;28;19942;-69
2023/03/06 03:04:19;;;;;;;;;;;;;;;;;;5028438;28;19970;-69
2023/03/06 03:06:45;;;;;;;;;;;;;;;;;;5025688;28;19921;-69
2023/03/06 03:09:13;;;;;;;;;;;;;;;;;;5025023;28;20523;-68
2023/03/06 03:11:39;;;;;;;;;;;;;;;;;;5026657;28;19917;-68
2023/03/06 03:14:04;;;;;;;;;;;;;;;;;;5028026;28;19921;-69
2023/03/06 03:16:29;;;;;;;;;;;;;;;;;;5028540;28;19923;-68
2023/03/06 03:18:55;;;;;;;;;;;;;;;;;;5030304;28;19924;-68
2023/03/06 03:21:20;;;;;;;;;;;;;;;;;;5028877;28;19927;-68
2023/03/06 03:23:45;;;;;;;;;;;;;;;;;;5023961;28;19942;-68
2023/03/06 03:26:14;;;;;;;;;;;;;;;;;;5008049;28;19920;-68
2023/03/06 03:28:39;;;;;;;;;;;;;;;;;;5025037;28;20053;-67
2023/03/06 03:31:07;;;;;;;;;;;;;;;;;;5008194;28;19928;-67
2023/03/06 03:33:32;;;;;;;;;;;;;;;;;;5023429;28;19921;-67
2023/03/06 03:35:57;;;;;;;;;;;;;;;;;;5025722;28;19916;-67
2023/03/06 03:38:23;;;;;;;;;;;;;;;;;;5026767;28;19940;-67
2023/03/06 03:40:51;;;;;;;;;;;;;;;;;;5021516;28;19998;-67
2023/03/06 03:43:19;;;;;;;;;;;;;;;;;;5023562;28;20311;-66
2023/03/06 03:45:47;;;;;;;;;;;;;;;;;;5007775;28;19932;-68
2023/03/06 03:48:12;;;;;;;;;;;;;;;;;;5023024;28;20594;-67
2023/03/06 03:50:38;;;;;;;;;;;;;;;;;;5026036;28;20391;-67
2023/03/06 03:53:06;;;;;;;;;;;;;;;;;;5005168;28;20367;-68
2023/03/06 03:55:33;;;;;;;;;;;;;;;;;;5013079;28;19920;-69
2023/03/06 03:57:59;;;;;;;;;;;;;;;;;;5007657;28;19966;-68
2023/03/06 04:00:27;;;;;;;;;;;;;;;;;;5025496;28;20526;-69
2023/03/06 04:02:55;;;;;;;;;;;;;;;;;;5026268;28;20004;-68
2023/03/06 04:05:20;;;;;;;;;;;;;;;;;;5028013;28;19967;-68
2023/03/06 04:07:48;;;;;;;;;;;;;;;;;;5024697;28;19927;-70
2023/03/06 04:10:14;;;;;;;;;;;;;;;;;;5024535;28;19917;-69
2023/03/06 04:12:39;;;;;;;;;;;;;;;;;;5030685;28;19982;-69
2023/03/06 04:15:04;;;;;;;;;;;;;;;;;;5026165;28;19920;-69
2023/03/06 04:17:32;;;;;;;;;;;;;;;;;;5027512;28;19931;-68
2023/03/06 04:20:03;;;;;;;;;;;;;;;;;;5017367;28;20301;-68
2023/03/06 04:22:28;;;;;;;;;;;;;;;;;;5011091;28;19920;-68
2023/03/06 04:24:56;;;;;;;;;;;;;;;;;;5009481;28;19920;-69
2023/03/06 04:27:21;;;;;;;;;;;;;;;;;;5034538;28;20474;-69
2023/03/06 04:29:50;;;;;;;;;;;;;;;;;;5027273;28;20431;-69
2023/03/06 04:32:15;;;;;;;;;;;;;;;;;;5030541;28;20157;-69
2023/03/06 04:34:40;;;;;;;;;;;;;;;;;;5011115;28;19923;-69
2023/03/06 04:37:08;;;;;;;;;;;;;;;;;;5029047;28;19971;-69
2023/03/06 04:39:34;;;;;;;;;;;;;;;;;;5027189;28;20023;-69
2023/03/06 04:45:15;;;;;;;;;;;;;;;;;;5014386;28;19947;-69
2023/03/06 04:47:41;;;;;;;;;;;;;;;;;;5006835;28;19916;-69
2023/03/06 04:50:06;;;;;;;;;;;;;;;;;;5026657;28;19963;-69
2023/03/06 04:52:32;;;;;;;;;;;;;;;;;;5006732;28;20400;-70
2023/03/06 04:54:57;;;;;;;;;;;;;;;;;;5021810;28;19921;-70
2023/03/06 04:57:22;;;;;;;;;;;;;;;;;;5026434;28;19920;-70
2023/03/06 04:59:49;;;;;;;;;;;;;;;;;;5021295;28;19924;-70
2023/03/06 05:02:14;;;;;;;;;;;;;;;;;;5039271;28;20387;-69
2023/03/06 05:04:40;;;;;;;;;;;;;;;;;;5023614;28;19928;-69
2023/03/06 05:07:05;;;;;;;;;;;;;;;;;;5009246;28;20429;-69
2023/03/06 05:09:33;;;;;;;;;;;;;;;;;;5020706;28;21504;-70
2023/03/06 05:11:58;;;;;;;;;;;;;;;;;;5024629;28;19924;-69
2023/03/06 05:14:23;;;;;;;;;;;;;;;;;;5026533;28;19921;-70
2023/03/06 05:16:49;;;;;;;;;;;;;;;;;;5007600;28;19948;-69
2023/03/06 05:19:14;;;;;;;;;;;;;;;;;;5012587;28;19921;-71
2023/03/06 05:21:40;;;;;;;;;;;;;;;;;;5028804;28;20519;-70
2023/03/06 05:24:08;;;;;;;;;;;;;;;;;;5024782;28;21680;-70
2023/03/06 05:26:38;;;;;;;;;;;;;;;;;;5011659;28;20400;-70
2023/03/06 05:29:03;;;;;;;;;;;;;;;;;;5010527;28;19956;-70
2023/03/06 05:31:28;;;;;;;;;;;;;;;;;;5026388;28;19999;-70
2023/03/06 05:33:56;;;;;;;;;;;;;;;;;;5023898;28;20520;-70
2023/03/06 05:36:21;;;;;;;;;;;;;;;;;;5026219;28;20453;-70
2023/03/06 05:38:47;;;;;;;;;;;;;;;;;;5011465;28;19923;-71
2023/03/06 05:41:12;;;;;;;;;;;;;;;;;;5031611;28;19931;-70
2023/03/06 05:43:38;;;;;;;;;;;;;;;;;;5030005;28;19920;-70
2023/03/06 05:46:04;;;;;;;;;;;;;;;;;;5011438;28;20307;-70
2023/03/06 05:48:31;;;;;;;;;;;;;;;;;;5021617;28;19921;-70
2023/03/06 05:50:57;;;;;;;;;;;;;;;;;;5029880;28;20648;-70
2023/03/06 05:53:23;;;;;;;;;;;;;;;;;;5013078;28;19921;-70
2023/03/06 05:55:48;;;;;;;;;;;;;;;;;;5031042;28;19930;-70
2023/03/06 05:58:18;;;;;;;;;;;;;;;;;;5017942;28;19952;-70
2023/03/06 06:00:44;;;;;;;;;;;;;;;;;;5004693;28;20605;-70
2023/03/06 06:03:09;;;;;;;;;;;;;;;;;;5024370;28;19932;-70
2023/03/06 06:05:35;;;;;;;;;;;;;;;;;;5025060;28;20084;-69
2023/03/06 06:08:00;;;;;;;;;;;;;;;;;;5027257;28;19921;-69
2023/03/06 06:10:28;;;;;;;;;;;;;;;;;;5009575;28;20517;-68
2023/03/06 06:12:54;;;;;;;;;;;;;;;;;;5028935;28;19924;-71
2023/03/06 06:15:19;;;;;;;;;;;;;;;;;;5026918;28;19939;-68
2023/03/06 06:17:45;;;;;;;;;;;;;;;;;;5026053;28;19916;-69
2023/03/06 06:20:10;;;;;;;;;;;;;;;;;;5021698;28;20551;-69
2023/03/06 06:22:36;;;;;;;;;;;;;;;;;;5023398;28;20487;-69
2023/03/06 06:25:01;;;;;;;;;;;;;;;;;;5011755;28;19916;-69
2023/03/06 06:27:26;;;;;;;;;;;;;;;;;;5023678;28;20008;-69
2023/03/06 06:29:54;;;;;;;;;;;;;;;;;;5030929;28;20473;-69
2023/03/06 06:32:19;;;;;;;;;;;;;;;;;;5008763;28;19920;-69
2023/03/06 06:34:45;;;;;;;;;;;;;;;;;;5026700;28;19917;-70
2023/03/06 06:37:11;;;;;;;;;;;;;;;;;;5024822;28;20667;-68
2023/03/06 06:39:36;;;;;;;;;;;;;;;;;;5022409;28;20477;-68
2023/03/06 06:42:02;;;;;;;;;;;;;;;;;;5025756;28;19921;-69
2023/03/06 06:44:27;;;;;;;;;;;;;;;;;;5025820;28;19921;-69
2023/03/06 06:46:53;;;;;;;;;;;;;;;;;;5028967;28;19932;-69
2023/03/06 06:49:18;;;;;;;;;;;;;;;;;;5021548;28;20544;-70
2023/03/06 06:51:43;;;;;;;;;;;;;;;;;;5024848;28;19921;-69
2023/03/06 06:54:24;;;;;;;;;;;;;;;;;;5027348;28;20042;-69
2023/03/06 06:56:50;;;;;;;;;;;;;;;;;;5025851;28;19927;-69
2023/03/06 06:59:15;;;;;;;;;;;;;;;;;;5027268;28;19921;-69
2023/03/06 07:01:40;;;;;;;;;;;;;;;;;;5026572;28;20565;-67
2023/03/06 07:04:06;;;;;;;;;;;;;;;;;;5026856;28;19947;-69
2023/03/06 07:06:31;;;;;;;;;;;;;;;;;;5007909;28;21025;-67
2023/03/06 07:08:57;;;;;;;;;;;;;;;;;;5025293;28;19921;-69
2023/03/06 07:11:22;;;;;;;;;;;;;;;;;;5027892;28;19927;-69
2023/03/06 07:13:50;;;;;;;;;;;;;;;;;;5024037;28;19916;-70
2023/03/06 07:16:16;;;;;;;;;;;;;;;;;;5027282;28;20422;-69
2023/03/06 07:18:44;;;;;;;;;;;;;;;;;;5026677;28;19982;-70
2023/03/06 07:21:09;;;;;;;;;;;;;;;;;;5009456;28;21767;-70
2023/03/06 07:23:35;;;;;;;;;;;;;;;;;;5025093;28;19923;-71
2023/03/06 07:26:01;;;;;;;;;;;;;;;;;;5023306;28;19972;-71
2023/03/06 07:28:26;;;;;;;;;;;;;;;;;;5027632;28;19951;-72
2023/03/06 07:30:51;;;;;;;;;;;;;;;;;;5025262;28;19917;-73
2023/03/06 07:33:17;;;;;;;;;;;;;;;;;;5028198;28;19921;-71
2023/03/06 07:35:42;;;;;;;;;;;;;;;;;;5026996;28;20315;-72
2023/03/06 07:38:07;;;;;;;;;;;;;;;;;;5025976;28;20480;-72
2023/03/06 07:40:37;;;;;;;;;;;;;;;;;;5021681;28;19971;-72
2023/03/06 07:43:02;;;;;;;;;;;;;;;;;;5025078;28;19959;-70
2023/03/06 07:45:27;;;;;;;;;;;;;;;;;;5026748;28;20537;-70
2023/03/06 07:47:55;;;;;;;;;;;;;;;;;;5025125;28;20044;-70
2023/03/06 07:50:23;;;;;;;;;;;;;;;;;;5006478;28;19920;-69
2023/03/06 07:52:48;;;;;;;;;;;;;;;;;;5026867;28;19928;-69
2023/03/06 07:55:13;;;;;;;;;;;;;;;;;;5027508;28;19921;-68
2023/03/06 07:57:42;;;;;;;;;;;;;;;;;;5006635;28;19921;-69
2023/03/06 08:00:07;;;;;;;;;;;;;;;;;;5024929;28;20073;-70
2023/03/06 08:02:33;;;;;;;;;;;;;;;;;;5019677;28;19963;-70
2023/03/06 08:04:58;;;;;;;;;;;;;;;;;;5024872;28;20003;-71
2023/03/06 08:07:26;;;;;;;;;;;;;;;;;;5008095;28;20635;-70
2023/03/06 08:09:51;;;;;;;;;;;;;;;;;;5025036;28;19978;-70
2023/03/06 08:12:19;;;;;;;;;;;;;;;;;;5039876;28;19916;-68
2023/03/06 08:14:44;;;;;;;;;;;;;;;;;;5025973;28;20145;-68
2023/03/06 08:17:12;;;;;;;;;;;;;;;;;;5029317;28;20244;-69
2023/03/06 08:19:37;;;;;;;;;;;;;;;;;;5022406;28;19929;-70
2023/03/06 08:22:03;;;;;;;;;;;;;;;;;;5023865;28;20477;-70
2023/03/06 08:24:28;;;;;;;;;;;;;;;;;;5025729;28;19920;-69
2023/03/06 08:26:53;;;;;;;;;;;;;;;;;;5021322;28;19917;-68
2023/03/06 08:29:19;;;;;;;;;;;;;;;;;;5027103;28;19927;-67
2023/03/06 08:31:47;;;;;;;;;;;;;;;;;;5022270;28;19920;-68
2023/03/06 08:34:12;;;;;;;;;;;;;;;;;;5024280;28;19913;-69
2023/03/06 08:36:37;;;;;;;;;;;;;;;;;;5030956;28;19916;-68
2023/03/06 08:39:06;;;;;;;;;;;;;;;;;;5026751;28;19916;-69
2023/03/06 08:41:31;;;;;;;;;;;;;;;;;;5009400;28;19925;-69
2023/03/06 08:43:59;;;;;;;;;;;;;;;;;;5027192;28;19959;-69
2023/03/06 08:46:24;;;;;;;;;;;;;;;;;;5025817;28;20059;-68
2023/03/06 08:48:49;;;;;;;;;;;;;;;;;;5026220;28;20010;-68
2023/03/06 08:51:15;;;;;;;;;;;;;;;;;;5023927;28;19967;-68
2023/03/06 08:53:43;;;;;;;;;;;;;;;;;;5023038;28;20324;-68
2023/03/06 08:56:08;;;;;;;;;;;;;;;;;;5025754;28;19921;-68
2023/03/06 08:58:34;;;;;;;;;;;;;;;;;;5024827;28;20364;-68
2023/03/06 09:01:02;;;;;;;;;;;;;;;;;;5008840;28;20422;-68
2023/03/06 09:03:27;;;;;;;;;;;;;;;;;;5008090;28;20544;-67
2023/03/06 09:05:53;;;;;;;;;;;;;;;;;;5026724;28;20004;-67
2023/03/06 09:08:18;;;;;;;;;;;;;;;;;;5029651;28;20366;-67
2023/03/06 09:10:43;;;;;;;;;;;;;;;;;;5012200;28;19978;-67
2023/03/06 09:13:09;;;;;;;;;;;;;;;;;;5027277;28;20318;-68
2023/03/06 09:15:34;;;;;;;;;;;;;;;;;;5029628;28;20636;-67
2023/03/06 09:17:59;;;;;;;;;;;;;;;;;;5008866;28;20014;-67
2023/03/06 09:20:25;;;;;;;;;;;;;;;;;;5009519;28;19925;-67
2023/03/06 09:22:50;;;;;;;;;;;;;;;;;;5028258;28;20520;-67
2023/03/06 09:25:21;;;;;;;;;;;;;;;;;;5031784;28;20341;-67
2023/03/06 09:27:46;;;;;;;;;;;;;;;;;;5008134;28;20053;-67
2023/03/06 09:30:11;;;;;;;;;;;;;;;;;;5023698;28;19975;-67
2023/03/06 09:32:37;;;;;;;;;;;;;;;;;;5023983;28;19917;-68
2023/03/06 09:35:02;;;;;;;;;;;;;;;;;;5027527;28;19959;-69
2023/03/06 09:37:28;;;;;;;;;;;;;;;;;;5025431;28;19973;-68
2023/03/06 09:39:53;;;;;;;;;;;;;;;;;;5028278;28;19932;-68
2023/03/06 09:42:19;;;;;;;;;;;;;;;;;;5024299;28;20017;-68
2023/03/06 09:44:46;;;;;;;;;;;;;;;;;;5010982;28;19927;-67
2023/03/06 09:47:12;;;;;;;;;;;;;;;;;;5028417;28;19921;-67
2023/03/06 09:49:37;;;;;;;;;;;;;;;;;;5026787;28;19917;-68
2023/03/06 09:52:03;;;;;;;;;;;;;;;;;;5027960;28;19978;-68
2023/03/06 09:54:28;;;;;;;;;;;;;;;;;;5010938;28;19927;-69
2023/03/06 09:56:56;;;;;;;;;;;;;;;;;;5026612;28;19999;-69
2023/03/06 09:59:21;;;;;;;;;;;;;;;;;;5027665;28;19920;-69
2023/03/06 10:01:47;;;;;;;;;;;;;;;;;;5008305;28;20296;-70
2023/03/06 10:04:12;;;;;;;;;;;;;;;;;;5024978;28;19920;-69
2023/03/06 10:06:38;;;;;;;;;;;;;;;;;;5026107;28;19927;-70
2023/03/06 10:09:03;;;;;;;;;;;;;;;;;;5028823;28;20395;-70
2023/03/06 10:14:45;;;;;;;;;;;;;;;;;;5030876;28;19962;-72
2023/03/06 10:17:10;;;;;;;;;;;;;;;;;;5044097;28;20197;-73
2023/03/06 10:19:36;;;;;;;;;;;;;;;;;;5029362;28;19916;-74
2023/03/06 10:22:01;;;;;;;;;;;;;;;;;;5013168;28;19928;-75
2023/03/06 10:24:27;;;;;;;;;;;;;;;;;;5025360;28;19931;-76
2023/03/06 10:26:52;;;;;;;;;;;;;;;;;;5028767;28;19917;-77
2023/03/06 10:29:17;;;;;;;;;;;;;;;;;;5025590;28;19921;-77
2023/03/06 10:31:47;;;;;;;;;;;;;;;;;;5029120;28;19928;-75
2023/03/06 10:34:12;;;;;;;;;;;;;;;;;;5023277;28;20007;-76
2023/03/06 10:36:37;;;;;;;;;;;;;;;;;;5007395;28;19921;-76
2023/03/06 10:39:03;;;;;;;;;;;;;;;;;;5009783;28;19954;-76
2023/03/06 10:41:28;;;;;;;;;;;;;;;;;;5008875;28;20625;-76
2023/03/06 10:43:54;;;;;;;;;;;;;;;;;;5027175;28;20015;-76
2023/03/06 10:46:19;;;;;;;;;;;;;;;;;;5010128;28;19932;-76
2023/03/06 10:48:44;;;;;;;;;;;;;;;;;;5025468;28;19951;-75
2023/03/06 10:51:09;;;;;;;;;;;;;;;;;;5027264;28;20377;-75
2023/03/06 10:53:35;;;;;;;;;;;;;;;;;;5012962;28;20287;-75
2023/03/06 10:56:00;;;;;;;;;;;;;;;;;;5014809;28;20298;-75
2023/03/06 10:58:25;;;;;;;;;;;;;;;;;;5036288;28;19962;-74
2023/03/06 11:00:51;;;;;;;;;;;;;;;;;;5016063;28;19983;-74
2023/03/06 11:03:16;;;;;;;;;;;;;;;;;;5034113;28;20877;-74
2023/03/06 11:05:41;;;;;;;;;;;;;;;;;;5024162;28;20404;-73
2023/03/06 11:08:07;;;;;;;;;;;;;;;;;;5039998;28;19913;-73
2023/03/06 11:10:35;;;;;;;;;;;;;;;;;;5021972;28;20335;-73
2023/03/06 11:13:01;;;;;;;;;;;;;;;;;;5035908;28;20011;-73
2023/03/06 11:15:29;;;;;;;;;;;;;;;;;;5038161;28;19916;-74
2023/03/06 11:17:55;;;;;;;;;;;;;;;;;;5042167;28;20098;-74
2023/03/06 11:20:20;;;;;;;;;;;;;;;;;;5038841;28;19916;-74
2023/03/06 11:22:45;;;;;;;;;;;;;;;;;;5042801;28;20476;-74
2023/03/06 11:25:10;;;;;;;;;;;;;;;;;;5042816;28;19920;-74
2023/03/06 11:27:37;;;;;;;;;;;;;;;;;;5022834;28;19935;-74
2023/03/06 11:30:02;;;;;;;;;;;;;;;;;;5042172;28;19927;-75
2023/03/06 11:32:27;;;;;;;;;;;;;;;;;;5040979;28;20137;-75
2023/03/06 11:34:52;;;;;;;;;;;;;;;;;;5042656;28;20341;-75
2023/03/06 11:37:18;;;;;;;;;;;;;;;;;;5040542;28;19912;-74
2023/03/06 11:39:43;;;;;;;;;;;;;;;;;;5037107;28;19964;-74
2023/03/06 11:42:11;;;;;;;;;;;;;;;;;;5039529;28;20635;-74
2023/03/06 11:44:49;;;;;;;;;;;;;;;;;;5014729;28;19917;-74
2023/03/06 11:47:15;;;;;;;;;;;;;;;;;;5040998;28;19923;-74
2023/03/06 11:49:40;;;;;;;;;;;;;;;;;;5045650;28;19913;-75
2023/03/06 11:52:06;;;;;;;;;;;;;;;;;;5024852;28;20375;-74
2023/03/06 11:54:31;;;;;;;;;;;;;;;;;;5041963;28;20407;-74
2023/03/06 11:56:57;;;;;;;;;;;;;;;;;;5036144;28;20535;-74
2023/03/06 11:59:22;;;;;;;;;;;;;;;;;;5040108;28;19916;-74
2023/03/06 12:01:50;;;;;;;;;;;;;;;;;;5040144;28;19925;-75
2023/03/06 12:04:15;;;;;;;;;;;;;;;;;;5014381;28;20422;-73
2023/03/06 12:06:41;;;;;;;;;;;;;;;;;;5031260;28;19916;-73
2023/03/06 12:09:09;;;;;;;;;;;;;;;;;;5027983;28;19921;-72
2023/03/06 12:11:34;;;;;;;;;;;;;;;;;;5023203;28;19921;-72
2023/03/06 12:14:02;;;;;;;;;;;;;;;;;;5018838;28;19925;-72
2023/03/06 12:16:28;;;;;;;;;;;;;;;;;;5026028;28;19921;-72
2023/03/06 12:18:53;;;;;;;;;;;;;;;;;;5025068;28;19932;-72
2023/03/06 12:21:18;;;;;;;;;;;;;;;;;;5023817;28;20055;-74
2023/03/06 12:23:43;;;;;;;;;;;;;;;;;;5027256;28;19913;-74
2023/03/06 12:26:09;;;;;;;;;;;;;;;;;;5028968;28;19974;-72
2023/03/06 12:28:34;;;;;;;;;;;;;;;;;;5026249;28;20368;-72
2023/03/06 12:31:02;;;;;;;;;;;;;;;;;;5023856;28;20046;-72
2023/03/06 12:33:30;;;;;;;;;;;;;;;;;;5027259;28;19977;-72
2023/03/06 12:35:56;;;;;;;;;;;;;;;;;;5024348;28;19951;-72
2023/03/06 12:38:23;;;;;;;;;;;;;;;;;;5032189;28;19913;-72
2023/03/06 12:40:49;;;;;;;;;;;;;;;;;;5027100;28;19977;-73
2023/03/06 12:43:14;;;;;;;;;;;;;;;;;;5011624;28;19917;-72
2023/03/06 12:45:39;;;;;;;;;;;;;;;;;;5031411;28;19927;-73
2023/03/06 12:48:05;;;;;;;;;;;;;;;;;;5027791;28;19920;-72
2023/03/06 12:50:30;;;;;;;;;;;;;;;;;;5047916;28;20524;-71
2023/03/06 12:52:55;;;;;;;;;;;;;;;;;;5029627;28;19921;-72
2023/03/06 12:55:23;;;;;;;;;;;;;;;;;;5009940;28;19921;-72
2023/03/06 12:57:51;;;;;;;;;;;;;;;;;;5027406;28;19924;-72
2023/03/06 13:00:19;;;;;;;;;;;;;;;;;;5030086;28;19929;-72
2023/03/06 13:02:47;;;;;;;;;;;;;;;;;;5009147;28;21030;-72
2023/03/06 13:05:13;;;;;;;;;;;;;;;;;;5028493;28;19920;-72
2023/03/06 13:07:38;;;;;;;;;;;;;;;;;;5031068;28;19927;-71
2023/03/06 13:10:03;;;;;;;;;;;;;;;;;;5016755;28;20686;-71
2023/03/06 13:12:29;;;;;;;;;;;;;;;;;;5026892;28;19921;-71
2023/03/06 13:14:54;;;;;;;;;;;;;;;;;;5012981;28;20599;-71
2023/03/06 13:17:19;;;;;;;;;;;;;;;;;;5010364;28;19967;-71
2023/03/06 13:19:44;;;;;;;;;;;;;;;;;;5009524;28;20832;-72
2023/03/06 13:22:10;;;;;;;;;;;;;;;;;;5026631;28;19924;-71
2023/03/06 13:24:38;;;;;;;;;;;;;;;;;;5030703;28;19928;-72
2023/03/06 13:27:06;;;;;;;;;;;;;;;;;;5012734;28;21410;-71
2023/03/06 13:29:34;;;;;;;;;;;;;;;;;;5012374;28;19920;-71
2023/03/06 13:31:59;;;;;;;;;;;;;;;;;;5028517;28;19927;-71
2023/03/06 13:34:24;;;;;;;;;;;;;;;;;;5012794;28;19921;-72
2023/03/06 13:36:52;;;;;;;;;;;;;;;;;;5012225;28;19996;-71
2023/03/06 13:39:18;;;;;;;;;;;;;;;;;;5029373;28;20074;-71
2023/03/06 13:41:46;;;;;;;;;;;;;;;;;;5025197;28;19971;-72
2023/03/06 13:44:11;;;;;;;;;;;;;;;;;;5028336;28;20554;-70
2023/03/06 13:46:36;;;;;;;;;;;;;;;;;;5029974;28;19978;-71
2023/03/06 13:49:02;;;;;;;;;;;;;;;;;;5030615;28;19917;-70
2023/03/06 13:51:27;;;;;;;;;;;;;;;;;;4995695;28;20356;-70
2023/03/06 13:53:55;;;;;;;;;;;;;;;;;;5026529;28;19994;-71
2023/03/06 13:56:20;;;;;;;;;;;;;;;;;;5024492;28;21773;-70
2023/03/06 13:58:45;;;;;;;;;;;;;;;;;;5041463;28;19920;-70
2023/03/06 14:01:10;;;;;;;;;;;;;;;;;;5023642;28;20312;-71
2023/03/06 14:03:36;;;;;;;;;;;;;;;;;;5021525;28;19944;-70
2023/03/06 14:06:01;;;;;;;;;;;;;;;;;;5027998;28;19921;-69
2023/03/06 14:08:29;;;;;;;;;;;;;;;;;;5004286;28;19924;-70
2023/03/06 14:10:54;;;;;;;;;;;;;;;;;;5023173;28;20425;-70
2023/03/06 14:13:19;;;;;;;;;;;;;;;;;;5012447;28;20403;-71
2023/03/06 14:15:45;;;;;;;;;;;;;;;;;;5002561;28;20425;-70
2023/03/06 14:18:10;;;;;;;;;;;;;;;;;;5000448;28;19921;-70
2023/03/06 14:20:36;;;;;;;;;;;;;;;;;;5020511;28;20171;-70
2023/03/06 14:23:07;;;;;;;;;;;;;;;;;;5024557;28;19927;-69
2023/03/06 14:25:35;;;;;;;;;;;;;;;;;;5025355;28;20825;-71
2023/03/06 14:28:00;;;;;;;;;;;;;;;;;;5001194;28;19925;-69
2023/03/06 14:30:26;;;;;;;;;;;;;;;;;;5002646;28;19946;-69
2023/03/06 14:32:51;;;;;;;;;;;;;;;;;;5020621;28;20458;-70
2023/03/06 14:35:18;;;;;;;;;;;;;;;;;;5020111;28;19978;-70
2023/03/06 14:37:44;;;;;;;;;;;;;;;;;;5005340;28;20364;-70
2023/03/06 14:40:12;;;;;;;;;;;;;;;;;;5021221;28;19985;-69
2023/03/06 14:42:40;;;;;;;;;;;;;;;;;;5002612;28;19923;-69
2023/03/06 14:45:05;;;;;;;;;;;;;;;;;;5023266;28;19924;-70
2023/03/06 14:47:33;;;;;;;;;;;;;;;;;;5024047;28;20177;-69
2023/03/06 14:50:01;;;;;;;;;;;;;;;;;;5022405;28;20350;-69
2023/03/06 14:52:26;;;;;;;;;;;;;;;;;;5030398;28;19946;-70
2023/03/06 14:54:54;;;;;;;;;;;;;;;;;;5026101;28;19921;-70
2023/03/06 14:57:19;;;;;;;;;;;;;;;;;;5023554;28;19970;-70
2023/03/06 14:59:47;;;;;;;;;;;;;;;;;;5022121;28;19962;-70
2023/03/06 15:02:12;;;;;;;;;;;;;;;;;;5021404;28;21881;-70
2023/03/06 15:04:37;;;;;;;;;;;;;;;;;;5021101;28;19928;-70
2023/03/06 15:07:03;;;;;;;;;;;;;;;;;;5023189;28;20205;-69
2023/03/06 15:09:30;;;;;;;;;;;;;;;;;;5015176;28;20048;-68
2023/03/06 15:12:01;;;;;;;;;;;;;;;;;;5025106;28;19921;-68
2023/03/06 15:14:29;;;;;;;;;;;;;;;;;;5017560;28;20083;-70
2023/03/06 15:16:59;;;;;;;;;;;;;;;;;;5024540;28;19967;-70
2023/03/06 15:19:24;;;;;;;;;;;;;;;;;;5008386;28;20977;-70
2023/03/06 15:21:50;;;;;;;;;;;;;;;;;;5028719;28;19920;-70
2023/03/06 15:24:18;;;;;;;;;;;;;;;;;;5030283;28;20312;-70
2023/03/06 15:26:43;;;;;;;;;;;;;;;;;;5024747;28;19990;-70
2023/03/06 15:29:09;;;;;;;;;;;;;;;;;;5006259;28;19917;-70
2023/03/06 15:31:34;;;;;;;;;;;;;;;;;;5002799;28;22165;-70
2023/03/06 15:34:02;;;;;;;;;;;;;;;;;;5010018;28;20386;-70
2023/03/06 15:36:28;;;;;;;;;;;;;;;;;;5012290;28;19920;-70
2023/03/06 15:38:57;;;;;;;;;;;;;;;;;;5027378;28;19921;-70
2023/03/06 15:41:22;;;;;;;;;;;;;;;;;;5007920;28;19920;-72
2023/03/06 15:43:48;;;;;;;;;;;;;;;;;;5028742;28;19924;-71
2023/03/06 15:46:13;;;;;;;;;;;;;;;;;;5025535;28;19931;-69
2023/03/06 15:48:38;;;;;;;;;;;;;;;;;;5026385;28;19927;-70
2023/03/06 15:51:03;;;;;;;;;;;;;;;;;;5029072;28;19964;-69
2023/03/06 15:53:32;;;;;;;;;;;;;;;;;;5006819;28;19990;-69
2023/03/06 15:55:57;;;;;;;;;;;;;;;;;;5026484;28;20327;-72
2023/03/06 15:58:25;;;;;;;;;;;;;;;;;;5020668;28;19921;-69
2023/03/06 16:00:50;;;;;;;;;;;;;;;;;;5025726;28;19929;-71
2023/03/06 16:03:16;;;;;;;;;;;;;;;;;;5029056;28;19916;-70
2023/03/06 16:05:41;;;;;;;;;;;;;;;;;;5019813;28;20081;-71
2023/03/06 16:08:08;;;;;;;;;;;;;;;;;;5027165;28;19917;-69
2023/03/06 16:10:36;;;;;;;;;;;;;;;;;;5027545;28;20029;-69
2023/03/06 16:13:08;;;;;;;;;;;;;;;;;;5009746;28;19917;-69
2023/03/06 16:15:33;;;;;;;;;;;;;;;;;;5011272;28;19921;-70
2023/03/06 16:17:59;;;;;;;;;;;;;;;;;;5029842;28;20026;-69
2023/03/06 16:20:30;;;;;;;;;;;;;;;;;;5025453;28;20047;-69
2023/03/06 16:22:57;;;;;;;;;;;;;;;;;;5028599;28;20714;-70
2023/03/06 16:25:26;;;;;;;;;;;;;;;;;;5014989;28;20534;-72
2023/03/06 16:27:58;;;;;;;;;;;;;;;;;;5013735;28;19931;-70
2023/03/06 16:30:23;;;;;;;;;;;;;;;;;;5032703;28;19917;-71
2023/03/06 16:32:48;;;;;;;;;;;;;;;;;;5013690;28;19927;-70
2023/03/06 16:35:17;;;;;;;;;;;;;;;;;;5027948;28;19924;-70
2023/03/06 16:37:44;;;;;;;;;;;;;;;;;;5028879;28;19920;-69
2023/03/06 16:40:10;;;;;;;;;;;;;;;;;;5011447;28;20299;-67
2023/03/06 16:42:35;;;;;;;;;;;;;;;;;;5009279;28;19924;-68
2023/03/06 16:45:00;;;;;;;;;;;;;;;;;;5031564;28;19925;-68
2023/03/06 16:47:26;;;;;;;;;;;;;;;;;;5030060;28;20550;-68
2023/03/06 16:49:56;;;;;;;;;;;;;;;;;;5024172;28;19916;-68
2023/03/06 16:52:22;;;;;;;;;;;;;;;;;;5032089;28;19936;-68
2023/03/06 16:54:50;;;;;;;;;;;;;;;;;;5032553;28;19927;-71